createdAt,value
2023-01-31T00:02:00.324Z,2.20
2023-01-31T00:04:30.069Z,2.27
2023-01-31T00:06:58.299Z,2.00
2023-01-31T00:09:26.413Z,2.17
2023-01-31T00:11:54.637Z,3.47
2023-01-31T00:14:23.034Z,2.37
2023-01-31T00:16:52.127Z,1.80
2023-01-31T00:19:20.367Z,2.00
2023-01-31T00:21:49.849Z,2.87
2023-01-31T00:24:18.168Z,2.10
2023-01-31T00:26:46.381Z,2.20
2023-01-31T00:29:14.458Z,3.47
2023-01-31T00:31:42.552Z,2.00
2023-01-31T00:34:12.362Z,2.60
2023-01-31T00:36:40.495Z,1.93
2023-01-31T00:39:10.821Z,1.93
2023-01-31T00:41:40.056Z,2.20
2023-01-31T00:44:08.366Z,2.13
2023-01-31T00:46:37.531Z,1.90
2023-01-31T00:49:06.060Z,1.93
2023-01-31T00:51:34.751Z,1.83
2023-01-31T00:54:03.379Z,1.40
2023-01-31T00:56:32.885Z,2.10
2023-01-31T00:59:01.014Z,2.10
2023-01-31T01:01:30.229Z,1.97
2023-01-31T01:03:59.227Z,2.03
2023-01-31T01:06:28.385Z,2.30
2023-01-31T01:08:59.679Z,2.50
2023-01-31T01:11:33.435Z,1.40
2023-01-31T01:14:02.582Z,2.13
2023-01-31T01:16:36.829Z,1.60
2023-01-31T01:19:06.881Z,2.60
2023-01-31T01:21:39.018Z,1.60
2023-01-31T01:24:09.923Z,2.23
2023-01-31T01:26:39.669Z,1.40
2023-01-31T01:29:07.970Z,2.10
2023-01-31T01:31:36.876Z,1.47
2023-01-31T01:34:08.555Z,1.93
2023-01-31T01:36:38.293Z,1.50
2023-01-31T01:39:09.763Z,2.07
2023-01-31T01:41:40.815Z,2.27
2023-01-31T01:44:48.660Z,2.27
2023-01-31T01:47:24.471Z,2.03
2023-01-31T01:49:56.442Z,1.67
2023-01-31T01:52:27.679Z,2.37
2023-01-31T01:55:02.058Z,1.60
2023-01-31T01:57:36.955Z,1.93
2023-01-31T02:00:13.684Z,1.77
2023-01-31T02:02:42.852Z,1.40
2023-01-31T02:05:13.786Z,1.10
2023-01-31T02:07:42.794Z,2.50
2023-01-31T02:10:18.998Z,1.60
2023-01-31T02:12:48.492Z,1.70
2023-01-31T02:15:16.750Z,1.80
2023-01-31T02:17:45.045Z,2.07
2023-01-31T02:20:34.652Z,2.03
2023-01-31T02:23:50.640Z,1.70
2023-01-31T02:26:53.679Z,2.47
2023-01-31T02:29:51.261Z,1.40
2023-01-31T02:32:49.483Z,1.40
2023-01-31T02:35:32.517Z,1.77
2023-01-31T02:38:14.145Z,1.80
2023-01-31T02:40:53.933Z,2.47
2023-01-31T02:43:27.302Z,1.73
2023-01-31T02:46:02.490Z,1.60
2023-01-31T02:48:40.838Z,1.80
2023-01-31T02:51:15.049Z,1.67
2023-01-31T02:53:48.402Z,1.80
2023-01-31T02:56:20.431Z,2.27
2023-01-31T02:58:56.619Z,1.57
2023-01-31T03:01:29.977Z,1.67
2023-01-31T03:04:04.516Z,1.13
2023-01-31T03:06:59.911Z,2.00
2023-01-31T03:09:38.574Z,1.83
2023-01-31T03:12:24.389Z,1.30
2023-01-31T03:15:06.227Z,1.57
2023-01-31T03:17:47.017Z,1.70
2023-01-31T03:20:22.388Z,1.77
2023-01-31T03:22:56.576Z,1.70
2023-01-31T03:25:28.959Z,1.37
2023-01-31T03:28:01.835Z,1.40
2023-01-31T03:30:37.506Z,1.90
2023-01-31T03:33:13.953Z,1.80
2023-01-31T03:35:48.938Z,2.03
2023-01-31T03:38:22.791Z,1.70
2023-01-31T03:40:56.265Z,1.37
2023-01-31T03:43:32.692Z,1.50
2023-01-31T03:46:08.673Z,1.90
2023-01-31T03:48:42.393Z,2.03
2023-01-31T03:51:19.943Z,2.23
2023-01-31T03:53:53.671Z,1.30
2023-01-31T03:56:29.584Z,1.63
2023-01-31T03:59:02.923Z,1.93
2023-01-31T04:01:35.841Z,1.80
2023-01-31T04:04:10.040Z,1.33
2023-01-31T04:06:39.647Z,1.93
2023-01-31T04:09:07.826Z,1.40
2023-01-31T04:11:40.469Z,1.47
2023-01-31T04:14:09.234Z,1.50
2023-01-31T04:16:37.219Z,1.40
2023-01-31T04:19:05.755Z,1.90
2023-01-31T04:21:33.927Z,1.30
2023-01-31T04:24:03.323Z,0.93
2023-01-31T04:26:31.275Z,1.80
2023-01-31T04:28:59.261Z,1.60
2023-01-31T04:31:27.454Z,1.47
2023-01-31T04:33:57.894Z,1.70
2023-01-31T04:36:26.138Z,1.50
2023-01-31T04:38:54.130Z,1.63
2023-01-31T04:41:23.491Z,2.40
2023-01-31T04:43:51.517Z,1.33
2023-01-31T04:46:19.988Z,1.27
2023-01-31T04:48:47.975Z,1.10
2023-01-31T04:51:16.011Z,1.33
2023-01-31T04:53:45.499Z,1.60
2023-01-31T04:56:13.529Z,1.50
2023-01-31T04:58:43.499Z,1.87
2023-01-31T05:01:11.672Z,1.53
2023-01-31T05:03:39.723Z,1.57
2023-01-31T05:06:08.498Z,1.87
2023-01-31T05:08:36.592Z,2.00
2023-01-31T05:11:07.411Z,1.17
2023-01-31T05:13:38.160Z,1.50
2023-01-31T05:16:10.600Z,2.80
2023-01-31T05:18:39.358Z,1.67
2023-01-31T05:21:08.721Z,1.23
2023-01-31T05:23:36.984Z,1.63
2023-01-31T05:26:05.856Z,2.40
2023-01-31T05:28:33.916Z,2.07
2023-01-31T05:31:08.651Z,1.80
2023-01-31T05:33:37.055Z,2.43
2023-01-31T05:36:06.054Z,1.47
2023-01-31T05:38:34.171Z,1.60
2023-01-31T05:41:02.206Z,1.37
2023-01-31T05:43:30.224Z,1.83
2023-01-31T05:45:58.269Z,1.97
2023-01-31T05:48:27.630Z,1.57
2023-01-31T05:50:55.616Z,1.70
2023-01-31T05:53:24.468Z,1.73
2023-01-31T05:55:53.318Z,1.67
2023-01-31T05:58:21.322Z,2.60
2023-01-31T06:00:49.380Z,1.40
2023-01-31T06:03:17.353Z,1.90
2023-01-31T06:05:46.652Z,1.67
2023-01-31T06:08:14.811Z,1.73
2023-01-31T06:10:42.812Z,1.40
2023-01-31T06:13:10.930Z,1.13
2023-01-31T06:15:38.895Z,1.67
2023-01-31T06:18:06.892Z,2.10
2023-01-31T06:20:34.833Z,1.70
2023-01-31T06:23:04.169Z,1.33
2023-01-31T06:25:32.941Z,1.90
2023-01-31T06:28:00.997Z,1.90
2023-01-31T06:30:29.101Z,1.60
2023-01-31T06:32:57.574Z,1.70
2023-01-31T06:35:25.645Z,2.30
2023-01-31T06:37:53.637Z,1.43
2023-01-31T06:40:23.177Z,1.60
2023-01-31T06:42:51.188Z,1.50
2023-01-31T06:45:19.586Z,1.47
2023-01-31T06:47:47.808Z,2.33
2023-01-31T06:50:15.938Z,1.77
2023-01-31T06:52:44.029Z,2.00
2023-01-31T06:55:12.543Z,1.23
2023-01-31T06:57:48.594Z,1.70
2023-01-31T07:00:19.324Z,1.80
2023-01-31T07:02:47.340Z,1.37
2023-01-31T07:05:15.507Z,1.57
2023-01-31T07:07:43.503Z,1.50
2023-01-31T07:10:12.887Z,1.20
2023-01-31T07:12:41.828Z,1.57
2023-01-31T07:15:12.756Z,2.37
2023-01-31T07:17:41.488Z,1.70
2023-01-31T07:20:11.398Z,1.27
2023-01-31T07:22:39.358Z,1.03
2023-01-31T07:25:08.499Z,1.30
2023-01-31T07:27:36.913Z,1.90
2023-01-31T07:30:06.091Z,1.10
2023-01-31T07:32:35.437Z,1.57
2023-01-31T07:35:03.408Z,1.40
2023-01-31T07:37:31.333Z,1.50
2023-01-31T07:39:59.243Z,0.93
2023-01-31T07:42:27.292Z,1.50
2023-01-31T07:44:55.256Z,1.37
2023-01-31T07:47:23.244Z,2.07
2023-01-31T07:49:52.517Z,1.27
2023-01-31T07:52:20.448Z,2.33
2023-01-31T07:54:49.152Z,2.33
2023-01-31T07:57:17.773Z,2.80
2023-01-31T07:59:45.973Z,3.27
2023-01-31T08:02:33.418Z,1.43
2023-01-31T08:05:03.255Z,1.50
2023-01-31T08:07:31.814Z,1.97
2023-01-31T08:09:59.925Z,2.33
2023-01-31T08:12:27.993Z,2.17
2023-01-31T08:14:56.077Z,2.20
2023-01-31T08:17:24.143Z,2.03
2023-01-31T08:19:52.219Z,2.10
2023-01-31T08:22:21.917Z,1.97
2023-01-31T08:24:49.919Z,1.30
2023-01-31T08:27:18.325Z,2.20
2023-01-31T08:29:46.394Z,2.63
2023-01-31T08:32:14.379Z,1.63
2023-01-31T08:34:43.497Z,2.33
2023-01-31T08:37:11.585Z,1.77
2023-01-31T08:39:41.031Z,2.37
2023-01-31T08:42:08.999Z,2.10
2023-01-31T08:44:38.166Z,2.30
2023-01-31T08:47:06.331Z,1.70
2023-01-31T08:49:36.737Z,2.13
2023-01-31T08:52:05.241Z,1.43
2023-01-31T08:54:33.209Z,1.83
2023-01-31T08:57:02.513Z,2.03
2023-01-31T08:59:31.385Z,1.90
2023-01-31T09:01:59.520Z,2.60
2023-01-31T09:04:27.517Z,3.20
2023-01-31T09:06:55.692Z,2.10
2023-01-31T09:09:25.811Z,2.33
2023-01-31T09:11:53.760Z,2.60
2023-01-31T09:14:23.028Z,2.60
2023-01-31T09:16:51.056Z,2.37
2023-01-31T09:19:19.252Z,2.20
2023-01-31T09:21:47.260Z,2.00
2023-01-31T09:24:15.282Z,2.00
2023-01-31T09:26:43.287Z,2.27
2023-01-31T09:29:11.370Z,2.40
2023-01-31T09:31:40.726Z,2.07
2023-01-31T09:34:08.855Z,2.93
2023-01-31T09:36:36.937Z,2.17
2023-01-31T09:39:05.265Z,2.90
2023-01-31T09:41:38.578Z,2.23
2023-01-31T09:44:12.885Z,1.97
2023-01-31T09:46:50.664Z,1.80
2023-01-31T09:49:25.056Z,2.70
2023-01-31T09:51:57.063Z,1.57
2023-01-31T09:54:30.735Z,1.93
2023-01-31T09:57:14.743Z,2.57
2023-01-31T09:59:51.148Z,2.17
2023-01-31T10:02:43.213Z,1.97
2023-01-31T10:05:23.859Z,2.10
2023-01-31T10:08:03.051Z,1.43
2023-01-31T10:10:38.437Z,2.33
2023-01-31T10:13:17.480Z,2.40
2023-01-31T10:15:51.434Z,1.67
2023-01-31T10:18:26.449Z,2.43
2023-01-31T10:20:58.999Z,2.00
2023-01-31T10:23:34.026Z,2.33
2023-01-31T10:26:03.795Z,1.80
2023-01-31T10:28:40.035Z,1.90
2023-01-31T10:31:16.719Z,2.27
2023-01-31T10:33:53.973Z,1.70
2023-01-31T10:36:30.391Z,2.50
2023-01-31T10:39:05.416Z,2.65
2023-01-31T10:41:46.222Z,3.23
2023-01-31T10:44:23.681Z,2.20
2023-01-31T10:46:53.790Z,2.37
2023-01-31T10:49:25.766Z,2.87
2023-01-31T10:52:18.003Z,2.53
2023-01-31T10:55:00.061Z,2.50
2023-01-31T10:57:28.356Z,2.50
2023-01-31T10:59:56.714Z,2.40
2023-01-31T11:02:27.644Z,2.97
2023-01-31T11:04:59.552Z,2.40
2023-01-31T11:07:31.698Z,2.60
2023-01-31T11:10:00.092Z,2.43
2023-01-31T11:12:44.816Z,3.17
2023-01-31T11:15:20.669Z,3.67
2023-01-31T11:17:49.370Z,3.27
2023-01-31T11:20:26.245Z,3.23
2023-01-31T11:22:56.101Z,3.40
2023-01-31T11:25:26.712Z,3.00
2023-01-31T11:27:58.738Z,3.47
2023-01-31T11:30:30.851Z,3.40
2023-01-31T11:32:59.805Z,3.67
2023-01-31T11:35:32.224Z,3.13
2023-01-31T11:38:02.906Z,3.23
2023-01-31T11:40:33.988Z,3.60
2023-01-31T11:43:05.039Z,4.13
2023-01-31T11:45:35.544Z,2.97
2023-01-31T11:48:12.127Z,3.20
2023-01-31T11:50:44.743Z,4.00
2023-01-31T11:53:20.695Z,3.30
2023-01-31T11:55:50.704Z,3.50
2023-01-31T11:58:22.589Z,2.70
2023-01-31T12:00:56.824Z,3.40
2023-01-31T12:03:25.686Z,3.20
2023-01-31T12:06:03.299Z,2.63
2023-01-31T12:08:35.778Z,3.23
2023-01-31T12:11:07.208Z,3.47
2023-01-31T12:13:47.932Z,3.07
2023-01-31T12:16:18.395Z,2.57
2023-01-31T12:19:06.756Z,2.90
2023-01-31T12:21:50.940Z,2.43
2023-01-31T12:24:33.560Z,3.27
2023-01-31T12:27:11.746Z,3.30
2023-01-31T12:30:12.801Z,2.70
2023-01-31T12:33:17.480Z,2.90
2023-01-31T12:36:06.113Z,2.77
2023-01-31T12:39:05.163Z,2.80
2023-01-31T12:41:38.526Z,2.47
2023-01-31T12:44:34.540Z,2.83
2023-01-31T12:47:29.133Z,2.70
2023-01-31T12:50:18.333Z,2.67
2023-01-31T12:53:06.483Z,2.90
2023-01-31T12:55:45.180Z,2.00
2023-01-31T12:58:34.706Z,2.03
2023-01-31T13:01:08.253Z,2.73
2023-01-31T13:04:00.861Z,2.90
2023-01-31T13:06:35.480Z,2.27
2023-01-31T13:09:08.912Z,2.23
2023-01-31T13:11:42.738Z,2.70
2023-01-31T13:14:16.823Z,2.20
2023-01-31T13:16:47.741Z,2.23
2023-01-31T13:19:21.251Z,2.97
2023-01-31T13:21:55.467Z,2.53
2023-01-31T13:24:28.938Z,2.50
2023-01-31T13:27:04.789Z,2.13
2023-01-31T13:29:39.835Z,2.73
2023-01-31T13:32:15.379Z,1.87
2023-01-31T13:34:51.889Z,2.27
2023-01-31T13:37:21.245Z,2.93
2023-01-31T13:39:54.021Z,2.30
2023-01-31T13:42:23.607Z,2.40
2023-01-31T13:44:51.781Z,2.20
2023-01-31T13:47:26.673Z,1.60
2023-01-31T13:50:00.211Z,2.30
2023-01-31T13:52:34.075Z,2.30
2023-01-31T13:55:07.128Z,1.93
2023-01-31T13:57:46.620Z,2.03
2023-01-31T14:00:39.036Z,2.10
2023-01-31T14:03:10.452Z,1.80
2023-01-31T14:06:00.453Z,1.70
2023-01-31T14:08:38.365Z,2.03
2023-01-31T14:11:34.829Z,2.20
2023-01-31T14:14:21.966Z,1.77
2023-01-31T14:16:52.758Z,1.87
2023-01-31T14:20:03.176Z,2.07
2023-01-31T14:22:35.682Z,1.73
2023-01-31T14:25:07.888Z,1.63
2023-01-31T14:27:41.687Z,1.43
2023-01-31T14:30:41.315Z,1.80
2023-01-31T14:33:22.366Z,1.70
2023-01-31T14:36:32.817Z,1.60
2023-01-31T14:39:50.513Z,1.30
2023-01-31T14:43:20.541Z,1.80
2023-01-31T14:46:09.231Z,2.10
2023-01-31T14:48:59.406Z,1.63
2023-01-31T14:51:38.275Z,1.93
2023-01-31T14:54:35.818Z,1.50
2023-01-31T14:57:16.501Z,1.80
2023-01-31T14:59:55.451Z,2.03
2023-01-31T15:02:47.834Z,1.40
2023-01-31T15:05:39.246Z,1.60
2023-01-31T15:08:36.757Z,1.60
2023-01-31T15:11:06.724Z,1.27
2023-01-31T15:13:42.265Z,1.60
2023-01-31T15:16:19.897Z,1.30
2023-01-31T15:18:54.350Z,1.53
2023-01-31T15:21:29.325Z,1.63
2023-01-31T15:23:58.027Z,1.90
2023-01-31T15:26:30.447Z,1.37
2023-01-31T15:28:59.077Z,1.63
2023-01-31T15:31:33.290Z,1.57
2023-01-31T15:34:06.788Z,1.37
2023-01-31T15:36:39.886Z,1.47
2023-01-31T15:39:21.932Z,2.67
2023-01-31T15:41:50.091Z,2.00
2023-01-31T15:44:21.328Z,2.37
2023-01-31T15:46:51.095Z,2.60
2023-01-31T15:49:40.813Z,2.60
2023-01-31T15:52:16.546Z,2.17
2023-01-31T15:54:56.842Z,2.50
2023-01-31T15:57:27.823Z,2.27
2023-01-31T15:59:57.339Z,2.00
2023-01-31T16:02:29.625Z,1.30
2023-01-31T16:04:59.467Z,1.90
2023-01-31T16:07:31.342Z,2.10
2023-01-31T16:10:02.738Z,2.53
2023-01-31T16:12:33.022Z,2.93
2023-01-31T16:15:07.186Z,2.00
2023-01-31T16:17:36.156Z,1.63
2023-01-31T16:20:07.047Z,2.10
2023-01-31T16:22:35.170Z,1.70
2023-01-31T16:25:05.837Z,1.60
2023-01-31T16:27:38.294Z,1.70
2023-01-31T16:30:07.950Z,1.67
2023-01-31T16:32:41.131Z,2.00
2023-01-31T16:35:24.839Z,1.90
2023-01-31T16:38:03.477Z,2.40
2023-01-31T16:40:36.336Z,1.87
2023-01-31T16:43:20.161Z,1.40
2023-01-31T16:45:53.540Z,1.87
2023-01-31T16:48:27.989Z,1.70
2023-01-31T16:50:59.309Z,1.20
2023-01-31T16:53:32.834Z,1.30
2023-01-31T16:56:23.141Z,1.67
2023-01-31T16:58:54.917Z,1.67
2023-01-31T17:01:27.083Z,1.57
2023-01-31T17:04:15.734Z,1.90
2023-01-31T17:06:50.629Z,1.87
2023-01-31T17:09:23.060Z,1.80
2023-01-31T17:11:51.295Z,1.70
2023-01-31T17:14:19.307Z,1.37
2023-01-31T17:16:47.926Z,1.67
2023-01-31T17:19:16.026Z,2.37
2023-01-31T17:21:45.986Z,1.60
2023-01-31T17:24:16.631Z,1.90
2023-01-31T17:26:45.266Z,1.77
2023-01-31T17:29:13.447Z,1.37
2023-01-31T17:31:42.331Z,1.60
2023-01-31T17:34:14.522Z,1.27
2023-01-31T17:36:43.359Z,1.50
2023-01-31T17:39:12.713Z,1.17
2023-01-31T17:41:41.660Z,1.43
2023-01-31T17:44:15.083Z,1.90
2023-01-31T17:46:43.558Z,1.70
2023-01-31T17:49:11.951Z,1.10
2023-01-31T17:51:40.768Z,1.70
2023-01-31T17:54:10.073Z,1.30
2023-01-31T17:56:39.987Z,1.00
2023-01-31T17:59:12.278Z,1.07
2023-01-31T18:01:43.148Z,1.50
2023-01-31T18:04:11.290Z,1.40
2023-01-31T18:06:39.353Z,1.33
2023-01-31T18:09:10.067Z,1.70
2023-01-31T18:11:43.653Z,1.63
2023-01-31T18:14:11.814Z,1.50
2023-01-31T18:16:40.003Z,1.37
2023-01-31T18:19:08.073Z,1.93
2023-01-31T18:21:38.930Z,1.90
2023-01-31T18:24:11.901Z,1.50
2023-01-31T18:26:41.450Z,2.33
2023-01-31T18:29:09.657Z,1.53
2023-01-31T18:31:37.732Z,1.70
2023-01-31T18:34:06.020Z,2.03
2023-01-31T18:36:34.025Z,1.93
2023-01-31T18:39:02.490Z,2.30
2023-01-31T18:41:30.589Z,2.57
2023-01-31T18:44:00.370Z,2.53
2023-01-31T18:46:29.105Z,1.93
2023-01-31T18:48:57.527Z,2.17
2023-01-31T18:51:25.654Z,1.90
2023-01-31T18:53:53.676Z,2.47
2023-01-31T18:56:23.626Z,2.37
2023-01-31T18:58:54.322Z,1.70
2023-01-31T19:01:26.533Z,2.30
2023-01-31T19:03:58.085Z,2.20
2023-01-31T19:06:28.862Z,2.27
2023-01-31T19:08:58.999Z,2.50
2023-01-31T19:11:30.151Z,2.60
2023-01-31T19:13:58.815Z,2.93
2023-01-31T19:16:29.803Z,2.23
2023-01-31T19:18:58.623Z,2.90
2023-01-31T19:21:29.736Z,2.20
2023-01-31T19:24:00.400Z,2.70
2023-01-31T19:26:29.593Z,3.30
2023-01-31T19:28:58.587Z,2.40
2023-01-31T19:31:31.027Z,2.80
2023-01-31T19:34:01.241Z,2.53
2023-01-31T19:36:33.333Z,2.50
2023-01-31T19:39:04.277Z,2.90
2023-01-31T19:41:33.249Z,2.33
2023-01-31T19:44:03.525Z,2.37
2023-01-31T19:46:36.538Z,2.07
2023-01-31T19:49:04.989Z,1.93
2023-01-31T19:51:33.957Z,2.30
2023-01-31T19:54:03.347Z,2.33
2023-01-31T19:56:32.188Z,2.90
2023-01-31T19:59:01.317Z,2.23
2023-01-31T20:01:29.388Z,1.93
2023-01-31T20:03:59.038Z,2.37
2023-01-31T20:06:30.094Z,3.00
2023-01-31T20:09:00.202Z,2.60
2023-01-31T20:11:30.198Z,2.67
2023-01-31T20:13:58.820Z,2.70
2023-01-31T20:16:27.385Z,2.67
2023-01-31T20:18:56.112Z,2.83
2023-01-31T20:21:25.458Z,2.77
2023-01-31T20:23:53.602Z,2.40
2023-01-31T20:26:24.060Z,2.30
2023-01-31T20:28:52.361Z,2.27
2023-01-31T20:31:20.432Z,2.90
2023-01-31T20:33:48.436Z,2.37
2023-01-31T20:36:16.453Z,2.40
2023-01-31T20:38:45.827Z,2.70
2023-01-31T20:41:14.952Z,2.40
2023-01-31T20:43:43.323Z,2.60
2023-01-31T20:46:13.846Z,2.90
2023-01-31T20:48:43.123Z,2.70
2023-01-31T20:51:11.461Z,2.70
2023-01-31T20:53:39.822Z,2.60
2023-01-31T20:56:11.386Z,2.70
2023-01-31T20:58:43.347Z,2.50
2023-01-31T21:01:12.741Z,2.17
2023-01-31T21:03:40.821Z,2.70
2023-01-31T21:06:09.746Z,2.40
2023-01-31T21:08:39.910Z,2.13
2023-01-31T21:11:12.004Z,2.70
2023-01-31T21:13:41.987Z,2.43
2023-01-31T21:16:12.940Z,2.00
2023-01-31T21:18:43.922Z,2.20
2023-01-31T21:21:14.765Z,2.90
2023-01-31T21:23:42.781Z,2.50
2023-01-31T21:26:13.077Z,2.47
2023-01-31T21:28:41.289Z,2.87
2023-01-31T21:31:16.730Z,2.60
2023-01-31T21:33:45.848Z,2.13
2023-01-31T21:36:16.576Z,2.30
2023-01-31T21:38:45.069Z,2.67
2023-01-31T21:41:32.807Z,2.70
2023-01-31T21:44:00.835Z,2.70
2023-01-31T21:46:28.936Z,3.33
2023-01-31T21:48:57.259Z,2.20
2023-01-31T21:51:26.142Z,1.87
2023-01-31T21:53:54.655Z,2.00
2023-01-31T21:56:25.902Z,2.67
2023-01-31T21:58:54.969Z,2.00
2023-01-31T22:01:25.862Z,2.30
2023-01-31T22:03:55.998Z,2.27
2023-01-31T22:06:26.950Z,2.20
2023-01-31T22:08:57.852Z,2.17
2023-01-31T22:11:32.669Z,2.30
2023-01-31T22:14:02.236Z,2.00
2023-01-31T22:16:30.353Z,2.03
2023-01-31T22:18:59.784Z,2.30
2023-01-31T22:21:29.794Z,1.90
2023-01-31T22:24:00.439Z,2.60
2023-01-31T22:26:32.373Z,2.77
2023-01-31T22:29:02.405Z,2.33
2023-01-31T22:31:31.558Z,2.90
2023-01-31T22:34:00.926Z,2.20
2023-01-31T22:36:29.244Z,2.53
2023-01-31T22:38:57.321Z,2.20
2023-01-31T22:41:25.647Z,3.03
2023-01-31T22:43:55.906Z,2.53
2023-01-31T22:46:26.680Z,2.13
2023-01-31T22:48:55.937Z,1.90
2023-01-31T22:51:27.419Z,2.00
2023-01-31T22:53:55.784Z,2.60
2023-01-31T22:56:26.687Z,2.20
2023-01-31T22:59:01.061Z,1.90
2023-01-31T23:01:31.830Z,1.70
2023-01-31T23:04:02.620Z,1.97
2023-01-31T23:06:31.200Z,1.83
2023-01-31T23:08:59.257Z,2.13
2023-01-31T23:11:28.180Z,1.80
2023-01-31T23:13:59.376Z,1.90
2023-01-31T23:16:42.131Z,2.60
2023-01-31T23:19:10.247Z,2.30
2023-01-31T23:21:42.482Z,2.40
2023-01-31T23:24:11.709Z,2.27
2023-01-31T23:26:39.886Z,2.10
2023-01-31T23:29:09.226Z,2.10
2023-01-31T23:31:38.113Z,2.00
2023-01-31T23:34:07.334Z,1.83
2023-01-31T23:36:35.910Z,1.70
2023-01-31T23:39:04.800Z,2.00
2023-01-31T23:41:32.793Z,2.10
2023-01-31T23:44:00.776Z,1.70
2023-01-31T23:46:30.187Z,1.83
2023-01-31T23:48:58.164Z,2.13
2023-01-31T23:51:28.314Z,1.63
2023-01-31T23:53:56.273Z,1.60
2023-01-31T23:56:24.310Z,2.23
2023-01-31T23:58:52.264Z,1.80
